createdAt,value
2019-06-20T00:00:52.307Z,18.40
2019-06-20T00:05:57.611Z,18.30
2019-06-20T00:11:03.177Z,18.30
2019-06-20T00:16:08.339Z,18.30
2019-06-20T00:21:13.728Z,18.20
2019-06-20T00:26:18.907Z,18.10
2019-06-20T00:31:23.898Z,18.10
2019-06-20T00:36:29.168Z,18.00
2019-06-20T00:41:34.386Z,17.90
2019-06-20T00:46:39.442Z,17.90
2019-06-20T00:51:44.594Z,17.80
2019-06-20T00:56:49.627Z,17.80
2019-06-20T01:01:54.909Z,17.80
2019-06-20T01:07:01.152Z,17.70
2019-06-20T01:12:07.603Z,17.70
2019-06-20T01:17:14.304Z,17.60
2019-06-20T01:22:21.010Z,17.50
2019-06-20T01:27:27.597Z,17.40
2019-06-20T01:32:34.042Z,17.40
2019-06-20T01:37:40.664Z,17.30
2019-06-20T01:42:47.266Z,17.30
2019-06-20T01:47:52.900Z,17.20
2019-06-20T01:52:58.948Z,17.10
2019-06-20T01:58:05.290Z,17.10
2019-06-20T02:03:12.280Z,17.10
2019-06-20T02:08:17.272Z,17.10
2019-06-20T02:13:22.413Z,17.00
2019-06-20T02:18:27.503Z,16.90
2019-06-20T02:23:32.559Z,16.90
2019-06-20T02:28:37.687Z,16.90
2019-06-20T02:33:42.756Z,16.80
2019-06-20T02:38:47.904Z,16.80
2019-06-20T02:43:53.079Z,16.80
2019-06-20T02:48:58.064Z,16.80
2019-06-20T02:54:03.592Z,16.80
2019-06-20T02:59:08.872Z,16.70
2019-06-20T03:04:13.973Z,16.70
2019-06-20T03:09:19.123Z,16.70
2019-06-20T03:14:24.232Z,16.80
2019-06-20T03:19:29.291Z,16.90
2019-06-20T03:24:34.458Z,17.00
2019-06-20T03:29:39.377Z,17.20
2019-06-20T03:34:44.484Z,17.30
2019-06-20T03:39:49.475Z,17.40
2019-06-20T03:45:02.176Z,17.50
2019-06-20T03:50:01.101Z,17.70
2019-06-20T03:55:06.712Z,17.80
2019-06-20T04:00:13.262Z,17.90
2019-06-20T04:05:18.367Z,18.00
2019-06-20T04:10:23.474Z,18.20
2019-06-20T04:15:28.358Z,18.30
2019-06-20T04:20:33.567Z,18.40
2019-06-20T04:25:38.587Z,18.60
2019-06-20T04:30:43.735Z,18.80
2019-06-20T04:35:49.886Z,18.90
2019-06-20T04:40:54.979Z,19.00
2019-06-20T04:46:01.645Z,19.20
2019-06-20T04:51:06.790Z,19.30
2019-06-20T04:56:11.911Z,19.40
2019-06-20T05:01:17.029Z,19.50
2019-06-20T05:06:22.154Z,19.60
2019-06-20T05:11:27.215Z,19.70
2019-06-20T05:16:32.356Z,19.80
2019-06-20T05:21:37.372Z,19.90
2019-06-20T05:26:42.497Z,20.10
2019-06-20T05:31:47.639Z,20.30
2019-06-20T05:36:52.734Z,20.50
2019-06-20T05:41:57.939Z,20.60
2019-06-20T05:47:12.507Z,20.70
2019-06-20T05:52:09.678Z,20.80
2019-06-20T05:57:14.830Z,20.90
2019-06-20T06:02:19.903Z,21.20
2019-06-20T06:07:25.003Z,21.50
2019-06-20T06:12:29.950Z,21.70
2019-06-20T06:17:35.068Z,21.90
2019-06-20T06:22:40.228Z,22.10
2019-06-20T06:27:45.214Z,22.40
2019-06-20T06:32:50.644Z,22.80
2019-06-20T06:37:55.918Z,23.10
2019-06-20T06:43:00.974Z,23.50
2019-06-20T06:48:06.108Z,24.00
2019-06-20T06:53:11.252Z,24.40
2019-06-20T06:58:16.345Z,24.80
2019-06-20T07:03:21.506Z,25.20
2019-06-20T07:08:26.611Z,25.70
2019-06-20T07:13:31.695Z,26.10
2019-06-20T07:18:36.647Z,26.50
2019-06-20T07:23:41.750Z,26.70
2019-06-20T07:28:46.760Z,27.10
2019-06-20T07:33:51.698Z,27.50
2019-06-20T07:38:56.603Z,28.00
2019-06-20T07:44:01.525Z,28.40
2019-06-20T07:49:06.653Z,28.70
2019-06-20T07:54:11.587Z,29.20
2019-06-20T07:59:16.802Z,29.60
2019-06-20T08:04:21.898Z,29.80
2019-06-20T08:09:43.833Z,30.00
2019-06-20T08:14:33.832Z,30.30
2019-06-20T08:19:38.945Z,30.40
2019-06-20T08:24:43.879Z,30.80
2019-06-20T08:29:49.107Z,31.00
2019-06-20T08:34:54.224Z,31.50
2019-06-20T08:40:00.030Z,32.00
2019-06-20T08:45:07.527Z,31.90
2019-06-20T08:50:12.749Z,32.00
2019-06-20T08:55:19.810Z,32.00
2019-06-20T09:00:26.512Z,31.80
2019-06-20T09:05:32.138Z,32.10
2019-06-20T09:10:43.365Z,32.80
2019-06-20T09:15:48.277Z,33.10
2019-06-20T09:20:54.261Z,33.10
2019-06-20T09:25:59.664Z,32.80
2019-06-20T09:31:05.060Z,32.70
2019-06-20T09:36:10.228Z,32.80
2019-06-20T09:41:15.299Z,32.90
2019-06-20T09:46:20.546Z,33.00
2019-06-20T09:51:25.648Z,33.10
2019-06-20T09:56:30.581Z,33.30
2019-06-20T10:01:35.651Z,33.20
2019-06-20T10:06:40.861Z,33.40
2019-06-20T10:11:46.945Z,33.20
2019-06-20T10:16:54.078Z,33.50
2019-06-20T10:21:59.173Z,33.60
2019-06-20T10:27:04.281Z,34.10
2019-06-20T10:32:09.378Z,33.60
2019-06-20T10:37:14.645Z,33.10
2019-06-20T10:42:20.021Z,32.90
2019-06-20T10:47:33.685Z,32.70
2019-06-20T10:52:31.507Z,32.50
2019-06-20T10:57:36.401Z,32.40
2019-06-20T11:02:42.257Z,32.80
2019-06-20T11:07:48.127Z,32.80
2019-06-20T11:12:56.232Z,32.80
2019-06-20T11:18:00.494Z,33.40
2019-06-20T11:23:05.615Z,34.00
2019-06-20T11:28:10.745Z,33.60
2019-06-20T11:33:15.684Z,33.00
2019-06-20T11:38:20.586Z,32.80
2019-06-20T11:43:25.703Z,32.50
2019-06-20T11:48:30.980Z,32.30
2019-06-20T11:53:36.552Z,31.70
2019-06-20T11:58:41.972Z,30.90
2019-06-20T12:03:46.923Z,30.00
2019-06-20T12:08:52.039Z,29.00
2019-06-20T12:13:57.144Z,28.00
2019-06-20T12:19:02.264Z,27.40
2019-06-20T12:24:08.628Z,26.90
2019-06-20T12:29:15.226Z,26.50
2019-06-20T12:34:20.323Z,26.30
2019-06-20T12:39:25.458Z,26.10
2019-06-20T12:44:30.526Z,26.00
2019-06-20T12:49:35.458Z,25.90
2019-06-20T12:54:41.376Z,25.90
2019-06-20T12:59:48.286Z,26.00
2019-06-20T13:04:53.626Z,26.00
2019-06-20T13:09:58.575Z,25.80
2019-06-20T13:15:03.894Z,25.80
2019-06-20T13:20:09.688Z,25.70
2019-06-20T13:25:15.675Z,25.20
2019-06-20T13:30:21.040Z,25.00
2019-06-20T13:35:25.977Z,25.00
2019-06-20T13:40:31.093Z,25.10
2019-06-20T13:45:36.320Z,25.30
2019-06-20T13:50:41.915Z,25.80
2019-06-20T13:55:47.797Z,26.40
2019-06-20T14:00:52.900Z,27.10
2019-06-20T14:05:58.273Z,27.70
2019-06-20T14:11:03.434Z,28.40
2019-06-20T14:16:08.449Z,28.90
2019-06-20T14:21:13.592Z,29.40
2019-06-20T14:26:18.771Z,29.30
2019-06-20T14:31:23.727Z,29.00
2019-06-20T14:36:28.798Z,28.50
2019-06-20T14:41:34.052Z,28.20
2019-06-20T14:46:39.265Z,27.40
2019-06-20T14:51:45.399Z,27.30
2019-06-20T14:56:51.936Z,27.50
2019-06-20T15:01:57.299Z,27.40
2019-06-20T15:07:02.220Z,27.30
2019-06-20T15:12:07.353Z,27.10
2019-06-20T15:17:12.255Z,26.80
2019-06-20T15:22:17.210Z,26.70
2019-06-20T15:27:22.364Z,26.70
2019-06-20T15:32:27.290Z,26.70
2019-06-20T15:37:32.232Z,26.50
2019-06-20T15:42:37.331Z,26.40
2019-06-20T15:47:42.282Z,26.50
2019-06-20T15:52:47.560Z,27.00
2019-06-20T15:57:54.163Z,27.10
2019-06-20T16:03:09.375Z,26.90
2019-06-20T16:08:06.132Z,27.00
2019-06-20T16:13:11.393Z,26.90
2019-06-20T16:18:16.513Z,26.60
2019-06-20T16:23:21.470Z,26.00
2019-06-20T16:28:26.668Z,25.60
2019-06-20T16:33:31.676Z,25.50
2019-06-20T16:38:36.767Z,25.50
2019-06-20T16:43:42.449Z,25.40
2019-06-20T16:48:47.621Z,25.30
2019-06-20T16:53:52.687Z,25.20
2019-06-20T16:58:57.825Z,24.90
2019-06-20T17:04:02.915Z,24.70
2019-06-20T17:09:09.642Z,24.50
2019-06-20T17:14:15.365Z,24.20
2019-06-20T17:19:21.876Z,23.70
2019-06-20T17:24:27.299Z,23.50
2019-06-20T17:29:32.386Z,23.30
2019-06-20T17:34:37.819Z,23.30
2019-06-20T17:39:42.773Z,23.10
2019-06-20T17:44:48.390Z,23.00
2019-06-20T17:49:53.400Z,22.80
2019-06-20T17:54:58.427Z,22.60
2019-06-20T18:00:05.546Z,22.30
2019-06-20T18:05:10.770Z,22.20
2019-06-20T18:10:17.531Z,22.20
2019-06-20T18:15:24.216Z,22.10
2019-06-20T18:20:29.614Z,22.00
2019-06-20T18:25:34.645Z,21.90
2019-06-20T18:30:44.718Z,21.70
2019-06-20T18:35:49.855Z,21.60
2019-06-20T18:40:55.445Z,21.50
2019-06-20T18:46:00.799Z,21.50
2019-06-20T18:51:06.051Z,21.40
2019-06-20T18:56:11.219Z,21.20
2019-06-20T19:01:16.726Z,21.20
2019-06-20T19:06:35.141Z,20.90
2019-06-20T19:11:47.828Z,20.90
2019-06-20T19:16:52.981Z,20.80
2019-06-20T19:21:58.285Z,20.60
2019-06-20T19:27:03.342Z,20.30
2019-06-20T19:32:08.581Z,20.30
2019-06-20T19:37:13.888Z,20.10
2019-06-20T19:42:20.668Z,20.10
2019-06-20T19:47:26.018Z,20.10
2019-06-20T19:52:31.394Z,20.10
2019-06-20T19:57:36.603Z,20.10
2019-06-20T20:02:41.823Z,20.00
2019-06-20T20:07:47.174Z,19.90
2019-06-20T20:12:52.325Z,19.90
2019-06-20T20:17:57.464Z,19.80
2019-06-20T20:23:02.487Z,19.80
2019-06-20T20:28:07.654Z,19.60
2019-06-20T20:33:12.566Z,19.60
2019-06-20T20:38:17.750Z,19.50
2019-06-20T20:43:23.043Z,19.40
2019-06-20T20:48:28.165Z,19.40
2019-06-20T20:53:33.428Z,19.40
2019-06-20T20:58:38.866Z,19.30
2019-06-20T21:03:44.014Z,19.20
2019-06-20T21:08:48.984Z,19.30
2019-06-20T21:13:54.138Z,19.20
2019-06-20T21:18:59.326Z,19.20
2019-06-20T21:24:04.716Z,19.10
2019-06-20T21:29:09.596Z,19.10
2019-06-20T21:34:14.803Z,19.10
2019-06-20T21:39:20.118Z,19.10
2019-06-20T21:44:25.380Z,19.10
2019-06-20T21:49:30.776Z,19.10
2019-06-20T21:54:35.864Z,19.00
2019-06-20T21:59:41.010Z,18.90
2019-06-20T22:04:54.358Z,18.90
2019-06-20T22:09:52.491Z,18.90
2019-06-20T22:14:57.461Z,18.90
2019-06-20T22:20:02.595Z,18.80
2019-06-20T22:25:08.528Z,18.70
2019-06-20T22:30:15.392Z,18.70
2019-06-20T22:35:20.547Z,18.60
2019-06-20T22:40:25.720Z,18.60
2019-06-20T22:45:31.072Z,18.50
2019-06-20T22:50:36.370Z,18.40
2019-06-20T22:55:41.596Z,18.20
2019-06-20T23:00:47.188Z,18.20
2019-06-20T23:05:52.468Z,18.10
2019-06-20T23:10:57.630Z,18.10
2019-06-20T23:16:02.838Z,18.00
2019-06-20T23:21:07.750Z,18.00
2019-06-20T23:26:13.327Z,17.90
2019-06-20T23:31:18.630Z,17.80
2019-06-20T23:36:23.782Z,17.80
2019-06-20T23:41:29.202Z,17.70
2019-06-20T23:46:34.325Z,17.70
2019-06-20T23:51:43.816Z,17.60
2019-06-20T23:56:49.356Z,17.50
